sensor_id;sensor_type;location;lat;lon;timestamp;pressure;altitude;pressure_sealevel;temperature;humidity
73633;BME280;61927;50.080;14.418;2023-06-22T00:02:16;99689.19;;;20.95;80.73
73633;BME280;61927;50.080;14.418;2023-06-22T00:04:42;99689.50;;;20.92;80.78
73633;BME280;61927;50.080;14.418;2023-06-22T00:07:08;99693.84;;;20.85;81.15
73633;BME280;61927;50.080;14.418;2023-06-22T00:09:34;99692.75;;;20.78;81.64
73633;BME280;61927;50.080;14.418;2023-06-22T00:11:59;99700.47;;;20.73;81.83
73633;BME280;61927;50.080;14.418;2023-06-22T00:14:25;99692.97;;;20.67;82.07
73633;BME280;61927;50.080;14.418;2023-06-22T00:16:51;99701.38;;;20.64;82.18
73633;BME280;61927;50.080;14.418;2023-06-22T00:19:20;99694.75;;;20.58;82.39
73633;BME280;61927;50.080;14.418;2023-06-22T00:21:47;99698.59;;;20.56;82.53
73633;BME280;61927;50.080;14.418;2023-06-22T00:24:20;99702.44;;;20.53;82.88
73633;BME280;61927;50.080;14.418;2023-06-22T00:26:48;99702.59;;;20.52;82.58
73633;BME280;61927;50.080;14.418;2023-06-22T00:29:14;99701.91;;;20.50;82.78
73633;BME280;61927;50.080;14.418;2023-06-22T00:31:40;99700.19;;;20.49;82.80
73633;BME280;61927;50.080;14.418;2023-06-22T00:34:05;99703.06;;;20.47;82.97
73633;BME280;61927;50.080;14.418;2023-06-22T00:36:32;99711.28;;;20.46;82.83
73633;BME280;61927;50.080;14.418;2023-06-22T00:38:57;99713.13;;;20.45;83.03
73633;BME280;61927;50.080;14.418;2023-06-22T00:41:23;99709.28;;;20.48;82.91
73633;BME280;61927;50.080;14.418;2023-06-22T00:43:48;99703.75;;;20.49;82.79
73633;BME280;61927;50.080;14.418;2023-06-22T00:46:14;99700.44;;;20.55;82.45
73633;BME280;61927;50.080;14.418;2023-06-22T00:48:40;99703.13;;;20.55;82.31
73633;BME280;61927;50.080;14.418;2023-06-22T00:51:09;99696.06;;;20.54;82.53
73633;BME280;61927;50.080;14.418;2023-06-22T00:53:35;99706.28;;;20.51;82.71
73633;BME280;61927;50.080;14.418;2023-06-22T00:56:02;99702.06;;;20.48;82.40
73633;BME280;61927;50.080;14.418;2023-06-22T00:58:29;99697.41;;;20.41;83.03
73633;BME280;61927;50.080;14.418;2023-06-22T01:00:55;99683.25;;;20.39;82.98
73633;BME280;61927;50.080;14.418;2023-06-22T01:03:20;99676.84;;;20.40;83.31
73633;BME280;61927;50.080;14.418;2023-06-22T01:05:47;99675.28;;;20.37;83.04
73633;BME280;61927;50.080;14.418;2023-06-22T01:11:10;99677.72;;;20.30;83.62
73633;BME280;61927;50.080;14.418;2023-06-22T01:13:45;99675.34;;;20.27;83.55
73633;BME280;61927;50.080;14.418;2023-06-22T01:18:50;99665.31;;;20.20;83.97
73633;BME280;61927;50.080;14.418;2023-06-22T01:21:19;99668.00;;;20.20;84.07
73633;BME280;61927;50.080;14.418;2023-06-22T01:23:56;99666.16;;;20.20;83.90
73633;BME280;61927;50.080;14.418;2023-06-22T01:28:57;99670.50;;;20.31;83.84
73633;BME280;61927;50.080;14.418;2023-06-22T01:31:26;99665.94;;;20.31;83.41
73633;BME280;61927;50.080;14.418;2023-06-22T01:34:01;99661.88;;;20.27;83.48
73633;BME280;61927;50.080;14.418;2023-06-22T01:36:29;99663.88;;;20.25;83.73
73633;BME280;61927;50.080;14.418;2023-06-22T01:38:56;99665.72;;;20.25;83.65
73633;BME280;61927;50.080;14.418;2023-06-22T01:41:25;99667.25;;;20.27;83.54
73633;BME280;61927;50.080;14.418;2023-06-22T01:43:52;99663.72;;;20.27;83.85
73633;BME280;61927;50.080;14.418;2023-06-22T01:46:19;99663.31;;;20.22;83.65
73633;BME280;61927;50.080;14.418;2023-06-22T01:48:46;99662.47;;;20.21;83.63
73633;BME280;61927;50.080;14.418;2023-06-22T01:51:13;99664.31;;;20.21;83.89
73633;BME280;61927;50.080;14.418;2023-06-22T01:53:39;99665.31;;;20.20;83.90
73633;BME280;61927;50.080;14.418;2023-06-22T01:56:05;99668.00;;;20.20;83.91
73633;BME280;61927;50.080;14.418;2023-06-22T01:58:32;99673.56;;;20.18;84.13
73633;BME280;61927;50.080;14.418;2023-06-22T02:01:11;99676.41;;;20.17;84.17
73633;BME280;61927;50.080;14.418;2023-06-22T02:04:11;99684.78;;;20.14;84.08
73633;BME280;61927;50.080;14.418;2023-06-22T02:06:39;99688.06;;;20.08;84.35
73633;BME280;61927;50.080;14.418;2023-06-22T02:09:13;99682.03;;;19.96;84.56
73633;BME280;61927;50.080;14.418;2023-06-22T02:11:42;99691.16;;;19.85;85.23
73633;BME280;61927;50.080;14.418;2023-06-22T02:14:10;99691.31;;;19.84;85.04
73633;BME280;61927;50.080;14.418;2023-06-22T02:16:36;99688.06;;;19.80;85.27
73633;BME280;61927;50.080;14.418;2023-06-22T02:19:03;99691.19;;;19.76;85.36
73633;BME280;61927;50.080;14.418;2023-06-22T02:21:29;99690.09;;;19.68;85.61
73633;BME280;61927;50.080;14.418;2023-06-22T02:23:56;99692.47;;;19.72;85.72
73633;BME280;61927;50.080;14.418;2023-06-22T02:26:22;99694.19;;;19.73;84.74
73633;BME280;61927;50.080;14.418;2023-06-22T02:28:49;99692.06;;;19.66;84.81
73633;BME280;61927;50.080;14.418;2023-06-22T02:31:14;99700.59;;;19.62;85.09
73633;BME280;61927;50.080;14.418;2023-06-22T02:33:41;99695.78;;;19.56;84.88
73633;BME280;61927;50.080;14.418;2023-06-22T02:36:07;99700.31;;;19.55;85.32
73633;BME280;61927;50.080;14.418;2023-06-22T02:38:35;99694.09;;;19.55;85.16
73633;BME280;61927;50.080;14.418;2023-06-22T02:41:02;99692.78;;;19.49;85.47
73633;BME280;61927;50.080;14.418;2023-06-22T02:43:27;99691.09;;;19.48;85.14
73633;BME280;61927;50.080;14.418;2023-06-22T02:45:53;99699.75;;;19.42;85.24
73633;BME280;61927;50.080;14.418;2023-06-22T02:48:19;99687.72;;;19.36;85.62
73633;BME280;61927;50.080;14.418;2023-06-22T02:50:45;99698.50;;;19.36;85.66
73633;BME280;61927;50.080;14.418;2023-06-22T02:53:10;99691.13;;;19.39;85.62
73633;BME280;61927;50.080;14.418;2023-06-22T02:55:36;99684.03;;;19.38;86.08
73633;BME280;61927;50.080;14.418;2023-06-22T02:58:02;99689.00;;;19.32;86.01
73633;BME280;61927;50.080;14.418;2023-06-22T03:00:32;99690.72;;;19.33;86.28
73633;BME280;61927;50.080;14.418;2023-06-22T03:02:57;99688.72;;;19.35;86.01
73633;BME280;61927;50.080;14.418;2023-06-22T03:05:23;99682.19;;;19.38;85.83
73633;BME280;61927;50.080;14.418;2023-06-22T03:07:49;99686.59;;;19.39;86.06
73633;BME280;61927;50.080;14.418;2023-06-22T03:10:15;99689.56;;;19.46;85.69
73633;BME280;61927;50.080;14.418;2023-06-22T03:12:42;99684.03;;;19.47;85.11
73633;BME280;61927;50.080;14.418;2023-06-22T03:15:10;99687.84;;;19.45;85.20
73633;BME280;61927;50.080;14.418;2023-06-22T03:17:37;99688.00;;;19.43;85.18
73633;BME280;61927;50.080;14.418;2023-06-22T03:20:07;99689.69;;;19.44;84.94
73633;BME280;61927;50.080;14.418;2023-06-22T03:22:38;99700.59;;;19.43;85.10
73633;BME280;61927;50.080;14.418;2023-06-22T03:25:04;99695.94;;;19.45;84.93
73633;BME280;61927;50.080;14.418;2023-06-22T03:27:36;99696.22;;;19.42;85.17
73633;BME280;61927;50.080;14.418;2023-06-22T03:30:02;99700.91;;;19.40;85.51
73633;BME280;61927;50.080;14.418;2023-06-22T03:32:28;99705.44;;;19.39;85.66
73633;BME280;61927;50.080;14.418;2023-06-22T03:34:53;99705.84;;;19.34;85.53
73633;BME280;61927;50.080;14.418;2023-06-22T03:37:19;99699.91;;;19.31;85.77
73633;BME280;61927;50.080;14.418;2023-06-22T03:39:45;99701.06;;;19.28;86.27
73633;BME280;61927;50.080;14.418;2023-06-22T03:42:10;99708.28;;;19.28;86.62
73633;BME280;61927;50.080;14.418;2023-06-22T03:44:36;99706.00;;;19.33;85.49
73633;BME280;61927;50.080;14.418;2023-06-22T03:47:03;99708.00;;;19.31;85.52
73633;BME280;61927;50.080;14.418;2023-06-22T03:49:29;99702.63;;;19.31;85.69
73633;BME280;61927;50.080;14.418;2023-06-22T03:51:55;99696.53;;;19.29;85.47
73633;BME280;61927;50.080;14.418;2023-06-22T03:54:20;99691.13;;;19.29;86.03
73633;BME280;61927;50.080;14.418;2023-06-22T03:56:46;99705.16;;;19.32;85.76
73633;BME280;61927;50.080;14.418;2023-06-22T03:59:12;99694.81;;;19.38;85.06
73633;BME280;61927;50.080;14.418;2023-06-22T04:01:37;99686.72;;;19.38;85.14
73633;BME280;61927;50.080;14.418;2023-06-22T04:04:03;99688.13;;;19.42;84.52
73633;BME280;61927;50.080;14.418;2023-06-22T04:06:28;99682.47;;;19.45;84.72
73633;BME280;61927;50.080;14.418;2023-06-22T04:08:54;99679.63;;;19.46;84.78
73633;BME280;61927;50.080;14.418;2023-06-22T04:11:19;99684.31;;;19.54;84.50
73633;BME280;61927;50.080;14.418;2023-06-22T04:13:45;99677.94;;;19.55;84.28
73633;BME280;61927;50.080;14.418;2023-06-22T04:16:11;99675.41;;;19.53;84.17
73633;BME280;61927;50.080;14.418;2023-06-22T04:18:36;99670.84;;;19.54;83.70
73633;BME280;61927;50.080;14.418;2023-06-22T04:21:02;99670.72;;;19.55;83.90
73633;BME280;61927;50.080;14.418;2023-06-22T04:23:28;99665.75;;;19.60;83.90
73633;BME280;61927;50.080;14.418;2023-06-22T04:25:54;99664.72;;;19.71;83.54
73633;BME280;61927;50.080;14.418;2023-06-22T04:28:22;99675.59;;;19.79;83.21
73633;BME280;61927;50.080;14.418;2023-06-22T04:30:47;99682.53;;;19.82;83.20
73633;BME280;61927;50.080;14.418;2023-06-22T04:33:14;99673.00;;;19.87;82.57
73633;BME280;61927;50.080;14.418;2023-06-22T04:35:40;99667.63;;;19.87;82.42
73633;BME280;61927;50.080;14.418;2023-06-22T04:38:09;99680.38;;;19.85;82.14
73633;BME280;61927;50.080;14.418;2023-06-22T04:40:34;99690.31;;;19.85;82.34
73633;BME280;61927;50.080;14.418;2023-06-22T04:43:00;99683.78;;;19.87;82.31
73633;BME280;61927;50.080;14.418;2023-06-22T04:45:29;99691.31;;;19.84;82.47
73633;BME280;61927;50.080;14.418;2023-06-22T04:47:55;99693.69;;;19.87;82.31
73633;BME280;61927;50.080;14.418;2023-06-22T04:50:20;99695.09;;;19.91;82.38
73633;BME280;61927;50.080;14.418;2023-06-22T04:52:50;99699.34;;;19.93;82.15
73633;BME280;61927;50.080;14.418;2023-06-22T04:55:16;99696.19;;;19.98;81.93
73633;BME280;61927;50.080;14.418;2023-06-22T04:57:45;99692.22;;;20.02;81.63
73633;BME280;61927;50.080;14.418;2023-06-22T05:00:18;99702.84;;;20.04;81.52
73633;BME280;61927;50.080;14.418;2023-06-22T05:02:46;99700.16;;;20.04;81.69
73633;BME280;61927;50.080;14.418;2023-06-22T05:05:13;99705.53;;;20.04;81.22
73633;BME280;61927;50.080;14.418;2023-06-22T05:07:50;99700.84;;;20.06;81.60
73633;BME280;61927;50.080;14.418;2023-06-22T05:10:18;99704.47;;;20.14;81.61
73633;BME280;61927;50.080;14.418;2023-06-22T05:12:45;99710.44;;;20.18;81.54
73633;BME280;61927;50.080;14.418;2023-06-22T05:15:11;99705.84;;;20.28;80.94
73633;BME280;61927;50.080;14.418;2023-06-22T05:17:37;99712.16;;;20.37;79.99
73633;BME280;61927;50.080;14.418;2023-06-22T05:20:12;99717.41;;;20.38;80.19
73633;BME280;61927;50.080;14.418;2023-06-22T05:22:38;99724.53;;;20.39;80.30
73633;BME280;61927;50.080;14.418;2023-06-22T05:25:09;99720.84;;;20.40;80.45
73633;BME280;61927;50.080;14.418;2023-06-22T05:27:35;99727.16;;;20.49;80.33
73633;BME280;61927;50.080;14.418;2023-06-22T05:30:06;99723.72;;;20.56;79.93
73633;BME280;61927;50.080;14.418;2023-06-22T05:32:32;99728.66;;;20.61;79.46
73633;BME280;61927;50.080;14.418;2023-06-22T05:34:58;99733.03;;;20.62;79.60
73633;BME280;61927;50.080;14.418;2023-06-22T05:37:24;99734.66;;;20.73;78.83
73633;BME280;61927;50.080;14.418;2023-06-22T05:39:50;99731.75;;;20.84;78.57
73633;BME280;61927;50.080;14.418;2023-06-22T05:42:15;99743.16;;;20.95;77.79
73633;BME280;61927;50.080;14.418;2023-06-22T05:44:41;99752.63;;;21.00;77.34
73633;BME280;61927;50.080;14.418;2023-06-22T05:47:07;99763.81;;;21.05;77.14
73633;BME280;61927;50.080;14.418;2023-06-22T05:49:32;99758.13;;;21.08;76.86
73633;BME280;61927;50.080;14.418;2023-06-22T05:51:59;99753.56;;;21.08;77.02
73633;BME280;61927;50.080;14.418;2023-06-22T05:54:25;99747.84;;;21.11;76.47
73633;BME280;61927;50.080;14.418;2023-06-22T05:56:51;99745.84;;;21.13;76.08
73633;BME280;61927;50.080;14.418;2023-06-22T05:59:17;99743.00;;;21.15;76.88
73633;BME280;61927;50.080;14.418;2023-06-22T06:01:42;99740.53;;;21.21;76.46
73633;BME280;61927;50.080;14.418;2023-06-22T06:04:08;99745.03;;;21.31;75.99
73633;BME280;61927;50.080;14.418;2023-06-22T06:06:34;99739.38;;;21.42;75.58
73633;BME280;61927;50.080;14.418;2023-06-22T06:09:05;99743.47;;;21.46;75.34
73633;BME280;61927;50.080;14.418;2023-06-22T06:11:31;99746.84;;;21.48;75.36
73633;BME280;61927;50.080;14.418;2023-06-22T06:13:56;99743.84;;;21.51;75.39
73633;BME280;61927;50.080;14.418;2023-06-22T06:16:24;99747.47;;;21.42;75.46
73633;BME280;61927;50.080;14.418;2023-06-22T06:18:50;99744.88;;;21.32;76.10
73633;BME280;61927;50.080;14.418;2023-06-22T06:21:16;99745.34;;;21.27;76.32
73633;BME280;61927;50.080;14.418;2023-06-22T06:23:42;99744.41;;;21.37;76.37
73633;BME280;61927;50.080;14.418;2023-06-22T06:26:08;99743.47;;;21.46;76.62
73633;BME280;61927;50.080;14.418;2023-06-22T06:28:34;99746.22;;;21.54;76.50
73633;BME280;61927;50.080;14.418;2023-06-22T06:31:01;99743.56;;;21.62;76.17
73633;BME280;61927;50.080;14.418;2023-06-22T06:33:26;99736.69;;;21.68;75.71
73633;BME280;61927;50.080;14.418;2023-06-22T06:35:52;99734.56;;;21.79;75.84
73633;BME280;61927;50.080;14.418;2023-06-22T06:38:18;99737.44;;;21.78;75.48
73633;BME280;61927;50.080;14.418;2023-06-22T06:40:44;99728.69;;;21.84;75.35
73633;BME280;61927;50.080;14.418;2023-06-22T06:43:10;99727.03;;;21.91;75.05
73633;BME280;61927;50.080;14.418;2023-06-22T06:45:36;99730.44;;;21.93;75.00
73633;BME280;61927;50.080;14.418;2023-06-22T06:48:01;99735.75;;;22.03;74.95
73633;BME280;61927;50.080;14.418;2023-06-22T06:50:27;99732.59;;;22.15;74.84
73633;BME280;61927;50.080;14.418;2023-06-22T06:52:53;99729.28;;;22.30;73.60
73633;BME280;61927;50.080;14.418;2023-06-22T06:55:19;99720.31;;;22.29;73.54
73633;BME280;61927;50.080;14.418;2023-06-22T06:57:45;99712.44;;;22.44;73.09
73633;BME280;61927;50.080;14.418;2023-06-22T07:00:14;99718.75;;;22.61;72.37
73633;BME280;61927;50.080;14.418;2023-06-22T07:02:44;99718.09;;;22.75;72.42
73633;BME280;61927;50.080;14.418;2023-06-22T07:05:11;99709.50;;;22.79;71.84
73633;BME280;61927;50.080;14.418;2023-06-22T07:07:37;99702.75;;;22.83;71.59
73633;BME280;61927;50.080;14.418;2023-06-22T07:10:04;99706.47;;;22.91;71.69
73633;BME280;61927;50.080;14.418;2023-06-22T07:12:30;99691.25;;;22.98;71.21
73633;BME280;61927;50.080;14.418;2023-06-22T07:15:02;99685.84;;;23.14;71.03
73633;BME280;61927;50.080;14.418;2023-06-22T07:17:28;99698.38;;;23.23;70.60
73633;BME280;61927;50.080;14.418;2023-06-22T07:19:55;99692.09;;;23.31;69.76
73633;BME280;61927;50.080;14.418;2023-06-22T07:22:20;99688.19;;;23.41;68.76
73633;BME280;61927;50.080;14.418;2023-06-22T07:27:11;99681.94;;;23.65;67.40
73633;BME280;61927;50.080;14.418;2023-06-22T07:29:38;99670.41;;;23.71;67.79
73633;BME280;61927;50.080;14.418;2023-06-22T07:32:06;99670.19;;;23.81;66.92
73633;BME280;61927;50.080;14.418;2023-06-22T07:34:31;99673.41;;;23.84;67.04
73633;BME280;61927;50.080;14.418;2023-06-22T07:36:59;99685.25;;;23.92;66.25
73633;BME280;61927;50.080;14.418;2023-06-22T07:39:24;99678.09;;;23.99;65.61
73633;BME280;61927;50.080;14.418;2023-06-22T07:41:52;99666.88;;;24.10;65.22
73633;BME280;61927;50.080;14.418;2023-06-22T07:44:18;99669.38;;;24.20;64.71
73633;BME280;61927;50.080;14.418;2023-06-22T07:46:43;99659.34;;;24.28;64.78
73633;BME280;61927;50.080;14.418;2023-06-22T07:49:09;99661.34;;;24.34;63.83
73633;BME280;61927;50.080;14.418;2023-06-22T07:51:36;99653.34;;;24.41;64.60
73633;BME280;61927;50.080;14.418;2023-06-22T07:54:02;99646.66;;;24.52;63.79
73633;BME280;61927;50.080;14.418;2023-06-22T07:56:29;99643.44;;;24.56;63.97
73633;BME280;61927;50.080;14.418;2023-06-22T07:58:55;99641.56;;;24.57;64.08
73633;BME280;61927;50.080;14.418;2023-06-22T08:01:23;99641.69;;;24.63;63.53
73633;BME280;61927;50.080;14.418;2023-06-22T08:03:52;99640.78;;;24.71;63.74
73633;BME280;61927;50.080;14.418;2023-06-22T08:06:17;99636.13;;;24.79;63.06
73633;BME280;61927;50.080;14.418;2023-06-22T08:08:43;99632.44;;;24.95;62.74
73633;BME280;61927;50.080;14.418;2023-06-22T08:11:13;99621.84;;;25.08;62.39
73633;BME280;61927;50.080;14.418;2023-06-22T08:13:39;99621.19;;;25.21;61.88
73633;BME280;61927;50.080;14.418;2023-06-22T08:16:05;99622.81;;;25.30;61.77
73633;BME280;61927;50.080;14.418;2023-06-22T08:18:31;99622.06;;;25.36;61.31
73633;BME280;61927;50.080;14.418;2023-06-22T08:20:57;99621.69;;;25.39;62.86
73633;BME280;61927;50.080;14.418;2023-06-22T08:23:23;99621.03;;;25.37;61.30
73633;BME280;61927;50.080;14.418;2023-06-22T08:25:49;99618.13;;;25.39;61.12
73633;BME280;61927;50.080;14.418;2023-06-22T08:28:16;99615.34;;;25.47;60.74
73633;BME280;61927;50.080;14.418;2023-06-22T08:30:41;99615.91;;;25.57;60.37
73633;BME280;61927;50.080;14.418;2023-06-22T08:33:07;99607.97;;;25.70;59.78
73633;BME280;61927;50.080;14.418;2023-06-22T08:35:33;99603.84;;;25.74;60.48
73633;BME280;61927;50.080;14.418;2023-06-22T08:37:58;99608.44;;;25.74;59.73
73633;BME280;61927;50.080;14.418;2023-06-22T08:40:25;99599.72;;;25.79;59.50
73633;BME280;61927;50.080;14.418;2023-06-22T08:42:51;99592.88;;;25.83;59.25
73633;BME280;61927;50.080;14.418;2023-06-22T08:45:16;99597.16;;;25.92;58.96
73633;BME280;61927;50.080;14.418;2023-06-22T08:47:42;99594.06;;;25.95;58.86
73633;BME280;61927;50.080;14.418;2023-06-22T08:50:11;99598.34;;;26.04;58.15
73633;BME280;61927;50.080;14.418;2023-06-22T08:52:38;99598.16;;;26.05;56.97
73633;BME280;61927;50.080;14.418;2023-06-22T08:55:07;99594.50;;;26.13;57.62
73633;BME280;61927;50.080;14.418;2023-06-22T08:57:33;99593.47;;;26.14;58.49
73633;BME280;61927;50.080;14.418;2023-06-22T08:59:58;99596.19;;;26.14;58.74
73633;BME280;61927;50.080;14.418;2023-06-22T09:02:25;99596.84;;;26.16;57.66
73633;BME280;61927;50.080;14.418;2023-06-22T09:04:51;99600.22;;;26.18;58.05
73633;BME280;61927;50.080;14.418;2023-06-22T09:07:24;99592.56;;;26.28;58.03
73633;BME280;61927;50.080;14.418;2023-06-22T09:09:50;99589.97;;;26.35;57.15
73633;BME280;61927;50.080;14.418;2023-06-22T09:12:17;99588.53;;;26.39;56.63
73633;BME280;61927;50.080;14.418;2023-06-22T09:14:42;99583.16;;;26.46;56.27
73633;BME280;61927;50.080;14.418;2023-06-22T09:17:08;99581.16;;;26.54;56.28
73633;BME280;61927;50.080;14.418;2023-06-22T09:19:33;99579.16;;;26.63;55.99
73633;BME280;61927;50.080;14.418;2023-06-22T09:22:00;99568.53;;;26.68;55.39
73633;BME280;61927;50.080;14.418;2023-06-22T09:24:25;99572.53;;;26.72;55.76
73633;BME280;61927;50.080;14.418;2023-06-22T09:26:51;99576.16;;;26.79;55.47
73633;BME280;61927;50.080;14.418;2023-06-22T09:29:17;99565.91;;;26.81;55.55
73633;BME280;61927;50.080;14.418;2023-06-22T09:31:42;99561.91;;;26.77;55.24
73633;BME280;61927;50.080;14.418;2023-06-22T09:34:09;99563.38;;;26.80;55.48
73633;BME280;61927;50.080;14.418;2023-06-22T09:36:35;99563.44;;;26.86;55.23
73633;BME280;61927;50.080;14.418;2023-06-22T09:39:02;99556.56;;;26.90;54.38
73633;BME280;61927;50.080;14.418;2023-06-22T09:41:31;99554.94;;;26.96;55.95
73633;BME280;61927;50.080;14.418;2023-06-22T09:43:57;99555.84;;;27.03;53.95
73633;BME280;61927;50.080;14.418;2023-06-22T09:46:23;99564.03;;;27.03;54.19
73633;BME280;61927;50.080;14.418;2023-06-22T09:48:53;99553.56;;;27.07;53.75
73633;BME280;61927;50.080;14.418;2023-06-22T09:51:20;99550.69;;;27.15;53.72
73633;BME280;61927;50.080;14.418;2023-06-22T09:53:47;99554.56;;;27.27;53.35
73633;BME280;61927;50.080;14.418;2023-06-22T09:56:13;99554.34;;;27.28;53.04
73633;BME280;61927;50.080;14.418;2023-06-22T09:58:42;99550.63;;;27.36;52.93
73633;BME280;61927;50.080;14.418;2023-06-22T10:01:10;99547.91;;;27.36;52.66
73633;BME280;61927;50.080;14.418;2023-06-22T10:03:36;99542.00;;;27.32;52.88
73633;BME280;61927;50.080;14.418;2023-06-22T10:06:03;99533.47;;;27.42;52.03
73633;BME280;61927;50.080;14.418;2023-06-22T10:08:29;99532.47;;;27.50;52.26
73633;BME280;61927;50.080;14.418;2023-06-22T10:10:55;99535.31;;;27.70;51.75
73633;BME280;61927;50.080;14.418;2023-06-22T10:13:20;99537.63;;;27.66;51.49
73633;BME280;61927;50.080;14.418;2023-06-22T10:15:46;99538.03;;;27.70;50.96
73633;BME280;61927;50.080;14.418;2023-06-22T10:18:16;99531.97;;;27.67;51.40
73633;BME280;61927;50.080;14.418;2023-06-22T10:20:43;99536.53;;;27.60;51.74
73633;BME280;61927;50.080;14.418;2023-06-22T10:23:08;99537.13;;;27.56;52.82
73633;BME280;61927;50.080;14.418;2023-06-22T10:25:34;99532.97;;;27.60;52.14
73633;BME280;61927;50.080;14.418;2023-06-22T10:28:00;99520.34;;;27.59;51.89
73633;BME280;61927;50.080;14.418;2023-06-22T10:30:25;99529.00;;;27.62;52.37
73633;BME280;61927;50.080;14.418;2023-06-22T10:32:51;99524.00;;;27.73;51.81
73633;BME280;61927;50.080;14.418;2023-06-22T10:35:17;99524.00;;;27.73;51.88
73633;BME280;61927;50.080;14.418;2023-06-22T10:37:46;99530.72;;;27.77;50.63
73633;BME280;61927;50.080;14.418;2023-06-22T10:40:13;99526.31;;;27.69;51.23
73633;BME280;61927;50.080;14.418;2023-06-22T10:42:40;99527.56;;;27.73;51.98
73633;BME280;61927;50.080;14.418;2023-06-22T10:45:07;99520.28;;;27.87;51.55
73633;BME280;61927;50.080;14.418;2023-06-22T10:47:34;99516.75;;;27.93;51.17
73633;BME280;61927;50.080;14.418;2023-06-22T10:49:59;99512.56;;;27.97;52.08
73633;BME280;61927;50.080;14.418;2023-06-22T10:52:25;99513.44;;;28.17;51.00
73633;BME280;61927;50.080;14.418;2023-06-22T10:54:51;99510.78;;;28.30;50.49
73633;BME280;61927;50.080;14.418;2023-06-22T10:57:18;99504.47;;;28.23;50.78
73633;BME280;61927;50.080;14.418;2023-06-22T10:59:44;99503.78;;;28.21;51.23
73633;BME280;61927;50.080;14.418;2023-06-22T11:02:10;99500.00;;;28.09;51.43
73633;BME280;61927;50.080;14.418;2023-06-22T11:04:36;99494.19;;;28.32;51.30
73633;BME280;61927;50.080;14.418;2023-06-22T11:07:02;99498.19;;;28.49;50.76
73633;BME280;61927;50.080;14.418;2023-06-22T11:09:28;99500.72;;;28.64;49.81
73633;BME280;61927;50.080;14.418;2023-06-22T11:11:56;99501.75;;;28.76;50.24
73633;BME280;61927;50.080;14.418;2023-06-22T11:14:22;99485.38;;;28.76;49.03
73633;BME280;61927;50.080;14.418;2023-06-22T11:16:48;99485.16;;;28.78;49.42
73633;BME280;61927;50.080;14.418;2023-06-22T11:19:14;99483.91;;;28.74;49.75
73633;BME280;61927;50.080;14.418;2023-06-22T11:21:39;99471.09;;;28.61;49.67
73633;BME280;61927;50.080;14.418;2023-06-22T11:24:05;99479.94;;;28.50;49.57
73633;BME280;61927;50.080;14.418;2023-06-22T11:26:31;99480.56;;;28.58;49.98
73633;BME280;61927;50.080;14.418;2023-06-22T11:28:58;99481.81;;;28.76;49.49
73633;BME280;61927;50.080;14.418;2023-06-22T11:31:26;99479.94;;;28.89;49.36
73633;BME280;61927;50.080;14.418;2023-06-22T11:33:52;99476.75;;;28.99;49.20
73633;BME280;61927;50.080;14.418;2023-06-22T11:36:19;99465.19;;;29.04;48.20
73633;BME280;61927;50.080;14.418;2023-06-22T11:38:45;99456.16;;;29.03;48.22
73633;BME280;61927;50.080;14.418;2023-06-22T11:41:10;99450.88;;;29.15;47.97
73633;BME280;61927;50.080;14.418;2023-06-22T11:43:37;99441.19;;;29.19;47.67
73633;BME280;61927;50.080;14.418;2023-06-22T11:46:03;99438.63;;;29.31;47.86
73633;BME280;61927;50.080;14.418;2023-06-22T11:48:30;99433.53;;;29.47;47.35
73633;BME280;61927;50.080;14.418;2023-06-22T11:50:56;99443.59;;;29.53;47.34
73633;BME280;61927;50.080;14.418;2023-06-22T11:53:24;99438.94;;;29.61;48.21
73633;BME280;61927;50.080;14.418;2023-06-22T11:55:50;99424.16;;;29.75;47.02
73633;BME280;61927;50.080;14.418;2023-06-22T11:58:16;99433.94;;;29.89;47.58
73633;BME280;61927;50.080;14.418;2023-06-22T12:00:42;99429.00;;;30.11;46.15
73633;BME280;61927;50.080;14.418;2023-06-22T12:03:08;99432.00;;;29.96;46.54
73633;BME280;61927;50.080;14.418;2023-06-22T12:05:35;99430.09;;;29.97;46.69
73633;BME280;61927;50.080;14.418;2023-06-22T12:08:00;99433.00;;;30.08;47.48
73633;BME280;61927;50.080;14.418;2023-06-22T12:10:26;99435.09;;;30.13;46.93
73633;BME280;61927;50.080;14.418;2023-06-22T12:12:54;99433.34;;;30.18;46.73
73633;BME280;61927;50.080;14.418;2023-06-22T12:15:20;99424.75;;;30.15;46.08
73633;BME280;61927;50.080;14.418;2023-06-22T12:17:45;99428.81;;;30.06;46.75
73633;BME280;61927;50.080;14.418;2023-06-22T12:20:13;99426.09;;;29.99;46.73
73633;BME280;61927;50.080;14.418;2023-06-22T12:22:41;99420.66;;;29.93;46.33
73633;BME280;61927;50.080;14.418;2023-06-22T12:25:07;99415.38;;;29.98;46.55
73633;BME280;61927;50.080;14.418;2023-06-22T12:27:34;99419.22;;;29.90;46.55
73633;BME280;61927;50.080;14.418;2023-06-22T12:30:03;99414.44;;;29.79;46.17
73633;BME280;61927;50.080;14.418;2023-06-22T12:32:29;99404.16;;;29.74;45.50
73633;BME280;61927;50.080;14.418;2023-06-22T12:34:55;99396.41;;;29.71;45.61
73633;BME280;61927;50.080;14.418;2023-06-22T12:37:22;99395.00;;;29.55;45.29
73633;BME280;61927;50.080;14.418;2023-06-22T12:39:48;99402.75;;;29.65;44.48
73633;BME280;61927;50.080;14.418;2023-06-22T12:42:15;99396.56;;;29.76;44.50
73633;BME280;61927;50.080;14.418;2023-06-22T12:44:40;99393.41;;;29.79;44.95
73633;BME280;61927;50.080;14.418;2023-06-22T12:47:07;99380.50;;;29.86;44.40
73633;BME280;61927;50.080;14.418;2023-06-22T12:49:34;99377.72;;;29.93;43.37
73633;BME280;61927;50.080;14.418;2023-06-22T12:52:01;99380.63;;;29.98;43.57
73633;BME280;61927;50.080;14.418;2023-06-22T12:54:26;99369.97;;;29.90;43.42
73633;BME280;61927;50.080;14.418;2023-06-22T12:56:53;99378.50;;;30.07;43.13
73633;BME280;61927;50.080;14.418;2023-06-22T12:59:19;99368.66;;;30.24;42.78